createdAt,value
2018-11-06T00:00:03.188Z,998.26
2018-11-06T00:01:03.166Z,998.29
2018-11-06T00:02:03.147Z,998.28
2018-11-06T00:03:03.130Z,998.29
2018-11-06T00:04:03.118Z,998.32
2018-11-06T00:05:03.095Z,998.27
2018-11-06T00:06:03.079Z,998.27
2018-11-06T00:07:03.061Z,998.28
2018-11-06T00:08:03.046Z,998.33
2018-11-06T00:09:03.054Z,998.39
2018-11-06T00:10:03.008Z,998.4
2018-11-06T00:11:02.996Z,998.41
2018-11-06T00:12:02.974Z,998.36
2018-11-06T00:13:02.959Z,998.36
2018-11-06T00:14:02.941Z,998.34
2018-11-06T00:15:02.925Z,998.33
2018-11-06T00:16:02.910Z,998.34
2018-11-06T00:17:02.888Z,998.3
2018-11-06T00:18:02.871Z,998.28
2018-11-06T00:19:02.852Z,998.3
2018-11-06T00:20:02.844Z,998.31
2018-11-06T00:21:03.023Z,998.36
2018-11-06T00:22:02.805Z,998.32
2018-11-06T00:23:02.787Z,998.39
2018-11-06T00:24:02.772Z,998.38
2018-11-06T00:25:02.756Z,998.36
2018-11-06T00:26:02.736Z,998.36
2018-11-06T00:27:02.721Z,998.34
2018-11-06T00:28:02.706Z,998.4
2018-11-06T00:29:02.688Z,998.35
2018-11-06T00:30:02.667Z,998.32
2018-11-06T00:31:02.650Z,998.32
2018-11-06T00:32:02.633Z,998.33
2018-11-06T00:33:02.621Z,998.29
2018-11-06T00:34:02.618Z,998.31
2018-11-06T00:35:02.583Z,998.26
2018-11-06T00:36:02.567Z,998.26
2018-11-06T00:37:02.547Z,998.24
2018-11-06T00:38:02.530Z,998.25
2018-11-06T00:39:02.516Z,998.25
2018-11-06T00:40:02.496Z,998.28
2018-11-06T00:41:02.479Z,998.26
2018-11-06T00:42:02.465Z,998.31
2018-11-06T00:43:02.457Z,998.28
2018-11-06T00:44:02.428Z,998.3
2018-11-06T00:45:02.414Z,998.3
2018-11-06T00:46:02.392Z,998.31
2018-11-06T00:47:02.374Z,998.38
2018-11-06T00:48:02.361Z,998.35
2018-11-06T00:49:02.344Z,998.38
2018-11-06T00:50:02.325Z,998.41
2018-11-06T00:51:02.315Z,998.38
2018-11-06T00:52:02.290Z,998.42
2018-11-06T00:53:02.273Z,998.4
2018-11-06T00:54:02.256Z,998.42
2018-11-06T00:55:02.239Z,998.41
2018-11-06T00:56:02.222Z,998.44
2018-11-06T00:57:02.206Z,998.41
2018-11-06T00:58:02.188Z,998.4
2018-11-06T00:59:02.171Z,998.4
2018-11-06T01:00:02.160Z,998.4
2018-11-06T01:01:02.139Z,998.43
2018-11-06T01:02:02.120Z,998.44
2018-11-06T01:03:02.104Z,998.4
2018-11-06T01:04:02.086Z,998.41
2018-11-06T01:05:02.118Z,998.42
2018-11-06T01:06:02.053Z,998.42
2018-11-06T01:07:02.034Z,998.45
2018-11-06T01:08:02.018Z,998.45
2018-11-06T01:09:02.001Z,998.45
2018-11-06T01:10:01.993Z,998.44
2018-11-06T01:11:01.965Z,998.49
2018-11-06T01:12:01.949Z,998.52
2018-11-06T01:13:01.932Z,998.47
2018-11-06T01:14:01.917Z,998.48
2018-11-06T01:15:01.899Z,998.48
2018-11-06T01:16:01.879Z,998.43
2018-11-06T01:17:01.863Z,998.44
2018-11-06T01:18:01.847Z,998.4
2018-11-06T01:19:01.833Z,998.41
2018-11-06T01:20:01.815Z,998.45
2018-11-06T01:21:01.795Z,998.44
2018-11-06T01:22:01.786Z,998.45
2018-11-06T01:23:01.767Z,998.42
2018-11-06T01:24:01.741Z,998.45
2018-11-06T01:25:01.733Z,998.48
2018-11-06T01:26:01.708Z,998.48
2018-11-06T01:27:01.698Z,998.48
2018-11-06T01:28:01.681Z,998.46
2018-11-06T01:29:01.661Z,998.47
2018-11-06T01:30:01.641Z,998.43
2018-11-06T01:31:01.624Z,998.45
2018-11-06T01:32:01.611Z,998.44
2018-11-06T01:33:01.599Z,998.45
2018-11-06T01:34:01.574Z,998.46
2018-11-06T01:35:01.555Z,998.5
2018-11-06T01:36:01.542Z,998.52
2018-11-06T01:37:01.522Z,998.48
2018-11-06T01:38:01.508Z,998.52
2018-11-06T01:39:01.487Z,998.51
2018-11-06T01:40:01.470Z,998.5
2018-11-06T01:41:01.491Z,998.47
2018-11-06T01:42:01.442Z,998.47
2018-11-06T01:43:01.431Z,998.46
2018-11-06T01:44:01.407Z,998.43
2018-11-06T01:45:01.405Z,998.45
2018-11-06T01:46:01.368Z,998.48
2018-11-06T01:47:01.360Z,998.49
2018-11-06T01:48:01.335Z,998.55
2018-11-06T01:49:01.318Z,998.55
2018-11-06T01:50:01.298Z,998.54
2018-11-06T01:51:01.284Z,998.51
2018-11-06T01:52:01.264Z,998.51
2018-11-06T01:53:01.247Z,998.52
2018-11-06T01:54:01.234Z,998.5
2018-11-06T01:55:01.215Z,998.53
2018-11-06T01:56:01.194Z,998.52
2018-11-06T01:57:01.178Z,998.53
2018-11-06T01:58:01.159Z,998.49
2018-11-06T01:59:01.147Z,998.45
2018-11-06T02:00:01.129Z,998.48
2018-11-06T02:01:01.109Z,998.5
2018-11-06T02:02:01.091Z,998.52
2018-11-06T02:03:01.075Z,998.51
2018-11-06T02:04:01.057Z,998.52
2018-11-06T02:05:01.037Z,998.52
2018-11-06T02:06:01.020Z,998.49
2018-11-06T02:07:01.004Z,998.48
2018-11-06T02:08:00.985Z,998.46
2018-11-06T02:09:00.968Z,998.53
2018-11-06T02:10:00.949Z,998.49
2018-11-06T02:11:00.934Z,998.53
2018-11-06T02:12:00.914Z,998.53
2018-11-06T02:13:00.899Z,998.59
2018-11-06T02:14:00.883Z,998.56
2018-11-06T02:15:00.865Z,998.57
2018-11-06T02:16:00.845Z,998.58
2018-11-06T02:17:00.827Z,998.55
2018-11-06T02:18:00.810Z,998.49
2018-11-06T02:19:00.792Z,998.51
2018-11-06T02:20:00.773Z,998.5
2018-11-06T02:21:00.968Z,998.5
2018-11-06T02:22:00.741Z,998.48
2018-11-06T02:23:00.726Z,998.44
2018-11-06T02:24:00.705Z,998.43
2018-11-06T02:25:00.687Z,998.47
2018-11-06T02:26:00.667Z,998.43
2018-11-06T02:27:00.650Z,998.44
2018-11-06T02:28:00.631Z,998.41
2018-11-06T02:29:00.615Z,998.46
2018-11-06T02:30:00.599Z,998.49
2018-11-06T02:31:00.582Z,998.47
2018-11-06T02:32:00.561Z,998.46
2018-11-06T02:33:00.542Z,998.48
2018-11-06T02:34:00.525Z,998.49
2018-11-06T02:35:00.507Z,998.49
2018-11-06T02:36:00.500Z,998.5
2018-11-06T02:37:00.484Z,998.43
2018-11-06T02:38:00.454Z,998.39
2018-11-06T02:39:00.435Z,998.36
2018-11-06T02:40:00.417Z,998.37
2018-11-06T02:41:00.400Z,998.36
2018-11-06T02:42:00.391Z,998.34
2018-11-06T02:43:00.370Z,998.32
2018-11-06T02:44:00.347Z,998.39
2018-11-06T02:45:00.328Z,998.4
2018-11-06T02:46:00.310Z,998.46
2018-11-06T02:47:00.292Z,998.46
2018-11-06T02:48:00.274Z,998.48
2018-11-06T02:49:00.257Z,998.45
2018-11-06T02:50:00.245Z,998.44
2018-11-06T02:51:00.221Z,998.45
2018-11-06T02:52:00.479Z,998.4
2018-11-06T02:53:00.303Z,998.38
2018-11-06T02:54:00.237Z,998.36
2018-11-06T02:55:00.319Z,998.36
2018-11-06T02:56:00.420Z,998.38
2018-11-06T02:57:00.437Z,998.42
2018-11-06T02:58:00.113Z,998.4
2018-11-06T02:59:00.077Z,998.35
2018-11-06T03:00:00.061Z,998.35
2018-11-06T03:01:00.041Z,998.4
2018-11-06T03:02:00.027Z,998.44
2018-11-06T03:03:00.014Z,998.43
2018-11-06T03:04:00.009Z,998.41
2018-11-06T03:04:59.974Z,998.46
2018-11-06T03:05:59.953Z,998.45
2018-11-06T03:06:59.931Z,998.46
2018-11-06T03:07:59.917Z,998.47
2018-11-06T03:08:59.894Z,998.46
2018-11-06T03:09:59.880Z,998.44
2018-11-06T03:10:59.864Z,998.47
2018-11-06T03:11:59.857Z,998.46
2018-11-06T03:12:59.823Z,998.47
2018-11-06T03:13:59.806Z,998.5
2018-11-06T03:14:59.784Z,998.5
2018-11-06T03:15:59.768Z,998.46
2018-11-06T03:16:59.823Z,998.46
2018-11-06T03:17:59.731Z,998.46
2018-11-06T03:18:59.716Z,998.43
2018-11-06T03:19:59.703Z,998.44
2018-11-06T03:20:59.680Z,998.44
2018-11-06T03:21:59.657Z,998.47
2018-11-06T03:22:59.655Z,998.52
2018-11-06T03:23:59.621Z,998.52
2018-11-06T03:24:59.605Z,998.55
2018-11-06T03:25:59.589Z,998.51
2018-11-06T03:26:59.665Z,998.51
2018-11-06T03:27:59.554Z,998.55
2018-11-06T03:28:59.531Z,998.51
2018-11-06T03:29:59.515Z,998.5
2018-11-06T03:30:59.500Z,998.49
2018-11-06T03:31:59.477Z,998.48
2018-11-06T03:32:59.459Z,998.51
2018-11-06T03:33:59.440Z,998.46
2018-11-06T03:34:59.424Z,998.47
2018-11-06T03:35:59.404Z,998.49
2018-11-06T03:36:59.391Z,998.43
2018-11-06T03:37:59.369Z,998.39
2018-11-06T03:38:59.352Z,998.39
2018-11-06T03:39:59.332Z,998.37
2018-11-06T03:40:59.313Z,998.4
2018-11-06T03:41:59.295Z,998.41
2018-11-06T03:42:59.280Z,998.38
2018-11-06T03:43:59.261Z,998.34
2018-11-06T03:44:59.242Z,998.37
2018-11-06T03:45:59.221Z,998.35
2018-11-06T03:46:59.203Z,998.38
2018-11-06T03:47:59.188Z,998.37
2018-11-06T03:48:59.167Z,998.41
2018-11-06T03:49:59.155Z,998.38
2018-11-06T03:50:59.131Z,998.4
2018-11-06T03:51:59.114Z,998.36
2018-11-06T03:52:59.097Z,998.37
2018-11-06T03:53:59.080Z,998.35
2018-11-06T03:54:59.066Z,998.4
2018-11-06T03:55:59.038Z,998.36
2018-11-06T03:56:59.026Z,998.4
2018-11-06T03:57:59.004Z,998.41
2018-11-06T03:58:58.987Z,998.37
2018-11-06T03:59:58.970Z,998.42
2018-11-06T04:00:58.947Z,998.37
2018-11-06T04:01:58.929Z,998.4
2018-11-06T04:02:58.912Z,998.36
2018-11-06T04:03:58.897Z,998.35
2018-11-06T04:04:58.873Z,998.36
2018-11-06T04:05:58.857Z,998.39
2018-11-06T04:06:58.839Z,998.39
2018-11-06T04:07:58.828Z,998.42
2018-11-06T04:08:58.799Z,998.42
2018-11-06T04:09:58.786Z,998.44
2018-11-06T04:10:58.768Z,998.42
2018-11-06T04:11:58.747Z,998.41
2018-11-06T04:12:58.728Z,998.44
2018-11-06T04:13:58.713Z,998.42
2018-11-06T04:14:58.692Z,998.46
2018-11-06T04:15:58.676Z,998.44
2018-11-06T04:16:58.654Z,998.49
2018-11-06T04:17:58.639Z,998.47
2018-11-06T04:18:58.622Z,998.46
2018-11-06T04:19:58.600Z,998.49
2018-11-06T04:20:58.786Z,998.48
2018-11-06T04:21:58.563Z,998.53
2018-11-06T04:22:58.545Z,998.48
2018-11-06T04:23:58.527Z,998.52
2018-11-06T04:24:58.509Z,998.52
2018-11-06T04:25:58.492Z,998.46
2018-11-06T04:26:58.475Z,998.48
2018-11-06T04:27:58.453Z,998.4
2018-11-06T04:28:58.437Z,998.43
2018-11-06T04:29:58.419Z,998.38
2018-11-06T04:30:58.399Z,998.36
2018-11-06T04:31:58.380Z,998.39
2018-11-06T04:32:58.368Z,998.41
2018-11-06T04:33:58.343Z,998.42
2018-11-06T04:34:58.327Z,998.45
2018-11-06T04:35:58.308Z,998.47
2018-11-06T04:36:58.289Z,998.49
2018-11-06T04:37:58.270Z,998.51
2018-11-06T04:38:58.258Z,998.51
2018-11-06T04:39:58.233Z,998.5
2018-11-06T04:40:58.215Z,998.53
2018-11-06T04:41:58.202Z,998.52
2018-11-06T04:42:58.180Z,998.54
2018-11-06T04:43:58.161Z,998.57
2018-11-06T04:44:58.143Z,998.57
2018-11-06T04:45:58.124Z,998.56
2018-11-06T04:46:58.106Z,998.53
2018-11-06T04:47:58.088Z,998.49
2018-11-06T04:48:58.070Z,998.49
2018-11-06T04:49:58.050Z,998.52
2018-11-06T04:50:58.033Z,998.49
2018-11-06T04:51:58.017Z,998.5
2018-11-06T04:52:57.994Z,998.47
2018-11-06T04:53:57.977Z,998.46
2018-11-06T04:54:57.962Z,998.41
2018-11-06T04:55:57.944Z,998.36
2018-11-06T04:56:57.924Z,998.34
2018-11-06T04:57:57.903Z,998.32
2018-11-06T04:58:57.893Z,998.31
2018-11-06T04:59:57.884Z,998.31
2018-11-06T05:00:57.850Z,998.33
2018-11-06T05:01:57.863Z,998.32
2018-11-06T05:02:57.811Z,998.42
2018-11-06T05:03:57.795Z,998.41
2018-11-06T05:04:57.781Z,998.44
2018-11-06T05:05:57.757Z,998.47
2018-11-06T05:06:57.821Z,998.47
2018-11-06T05:07:57.728Z,998.52
2018-11-06T05:08:57.701Z,998.57
2018-11-06T05:09:57.685Z,998.58
2018-11-06T05:10:57.668Z,998.56
2018-11-06T05:11:57.648Z,998.57
2018-11-06T05:12:57.629Z,998.5
2018-11-06T05:13:57.614Z,998.52
2018-11-06T05:14:57.592Z,998.52
2018-11-06T05:15:57.580Z,998.52
2018-11-06T05:16:57.557Z,998.57
2018-11-06T05:17:57.538Z,998.64
2018-11-06T05:18:57.519Z,998.66
2018-11-06T05:19:57.502Z,998.7
2018-11-06T05:20:57.486Z,998.68
2018-11-06T05:21:57.465Z,998.69
2018-11-06T05:22:57.447Z,998.68
2018-11-06T05:23:57.427Z,998.66
2018-11-06T05:24:57.410Z,998.6
2018-11-06T05:25:57.408Z,998.6
2018-11-06T05:26:57.374Z,998.6
2018-11-06T05:27:57.356Z,998.63
2018-11-06T05:28:57.339Z,998.6
2018-11-06T05:29:57.320Z,998.6
2018-11-06T05:30:57.300Z,998.58
2018-11-06T05:31:57.281Z,998.58
2018-11-06T05:32:57.341Z,998.59
2018-11-06T05:33:57.248Z,998.62
2018-11-06T05:34:57.332Z,998.63
2018-11-06T05:35:57.207Z,998.62
2018-11-06T05:36:57.190Z,998.58
2018-11-06T05:37:57.172Z,998.53
2018-11-06T05:38:57.207Z,998.44
2018-11-06T05:39:57.135Z,998.46
2018-11-06T05:40:57.115Z,998.47
2018-11-06T05:41:57.098Z,998.44
2018-11-06T05:42:57.083Z,998.43
2018-11-06T05:43:57.148Z,998.49
2018-11-06T05:44:57.042Z,998.46
2018-11-06T05:45:57.025Z,998.47
2018-11-06T05:46:57.005Z,998.48
2018-11-06T05:47:56.989Z,998.47
2018-11-06T05:48:56.969Z,998.46
2018-11-06T05:49:56.951Z,998.51
2018-11-06T05:50:56.946Z,998.53
2018-11-06T05:51:56.915Z,998.58
2018-11-06T05:52:56.958Z,998.59
2018-11-06T05:53:56.878Z,998.64
2018-11-06T05:54:56.859Z,998.66
2018-11-06T05:55:56.843Z,998.71
2018-11-06T05:56:56.824Z,998.69
2018-11-06T05:57:56.803Z,998.71
2018-11-06T05:58:56.787Z,998.71
2018-11-06T05:59:56.769Z,998.72
2018-11-06T06:00:56.748Z,998.75
2018-11-06T06:01:56.729Z,998.69
2018-11-06T06:02:56.712Z,998.67
2018-11-06T06:03:56.693Z,998.68
2018-11-06T06:04:56.678Z,998.68
2018-11-06T06:05:56.656Z,998.66
2018-11-06T06:06:56.685Z,998.68
2018-11-06T06:07:56.620Z,998.7
2018-11-06T06:08:56.600Z,998.72
2018-11-06T06:09:56.584Z,998.74
2018-11-06T06:10:56.580Z,998.81
2018-11-06T06:11:56.550Z,998.82
2018-11-06T06:12:56.527Z,998.87
2018-11-06T06:13:56.511Z,998.89
2018-11-06T06:14:56.496Z,998.99
2018-11-06T06:15:56.476Z,999
2018-11-06T06:16:56.660Z,998.99
2018-11-06T06:17:56.437Z,998.98
2018-11-06T06:18:56.420Z,998.99
2018-11-06T06:19:56.400Z,999
2018-11-06T06:20:56.584Z,999.02
2018-11-06T06:21:56.363Z,999.04
2018-11-06T06:22:56.346Z,999
2018-11-06T06:23:56.329Z,999
2018-11-06T06:24:56.317Z,999
2018-11-06T06:25:56.302Z,999.01
2018-11-06T06:26:56.271Z,999.04
2018-11-06T06:27:56.254Z,999.04
2018-11-06T06:28:56.237Z,999.09
2018-11-06T06:29:56.219Z,999.1
2018-11-06T06:30:56.199Z,999.1
2018-11-06T06:31:56.179Z,999.08
2018-11-06T06:32:56.163Z,999.1
2018-11-06T06:33:56.145Z,999.02
2018-11-06T06:34:56.188Z,999.05
2018-11-06T06:35:56.119Z,999.05
2018-11-06T06:36:56.089Z,998.99
2018-11-06T06:37:56.072Z,998.99
2018-11-06T06:38:56.054Z,998.97
2018-11-06T06:39:56.045Z,998.9
2018-11-06T06:40:56.112Z,998.86
2018-11-06T06:41:55.996Z,998.82
2018-11-06T06:42:55.976Z,998.83
2018-11-06T06:43:55.971Z,998.81
2018-11-06T06:44:55.944Z,998.87
2018-11-06T06:45:55.927Z,998.87
2018-11-06T06:46:55.914Z,998.88
2018-11-06T06:47:55.888Z,998.88
2018-11-06T06:48:55.868Z,998.85
2018-11-06T06:49:55.851Z,998.83
2018-11-06T06:50:55.832Z,998.79
2018-11-06T06:51:55.821Z,998.75
2018-11-06T06:52:55.796Z,998.73
2018-11-06T06:53:55.876Z,998.7
2018-11-06T06:54:55.836Z,998.73
2018-11-06T06:55:55.742Z,998.72
2018-11-06T06:56:55.725Z,998.82
2018-11-06T06:57:55.709Z,998.82
2018-11-06T06:58:55.687Z,998.85
2018-11-06T06:59:55.667Z,998.87
2018-11-06T07:00:55.647Z,998.95
2018-11-06T07:01:55.635Z,999.02
2018-11-06T07:02:55.616Z,999.06
2018-11-06T07:03:55.593Z,999.14
2018-11-06T07:04:55.582Z,999.15
2018-11-06T07:05:55.562Z,999.18
2018-11-06T07:06:55.537Z,999.19
2018-11-06T07:07:55.524Z,999.23
2018-11-06T07:08:55.501Z,999.16
2018-11-06T07:09:55.483Z,999.14
2018-11-06T07:10:55.466Z,999.12
2018-11-06T07:11:55.445Z,999.11
2018-11-06T07:12:55.472Z,999.15
2018-11-06T07:13:55.409Z,999.19
2018-11-06T07:14:55.391Z,999.15
2018-11-06T07:15:55.374Z,999.23
2018-11-06T07:16:55.355Z,999.22
2018-11-06T07:17:55.336Z,999.22
2018-11-06T07:18:55.318Z,999.22
2018-11-06T07:19:55.303Z,999.26
2018-11-06T07:20:55.284Z,999.28
2018-11-06T07:21:55.263Z,999.3
2018-11-06T07:22:55.246Z,999.32
2018-11-06T07:23:55.232Z,999.32
2018-11-06T07:24:55.252Z,999.32
2018-11-06T07:25:55.194Z,999.29
2018-11-06T07:26:55.173Z,999.3
2018-11-06T07:27:55.157Z,999.27
2018-11-06T07:28:55.225Z,999.29
2018-11-06T07:29:55.124Z,999.3
2018-11-06T07:30:55.100Z,999.31
2018-11-06T07:31:55.082Z,999.28
2018-11-06T07:32:55.064Z,999.28
2018-11-06T07:33:55.046Z,999.32
2018-11-06T07:34:55.281Z,999.32
2018-11-06T07:35:55.104Z,999.3
2018-11-06T07:36:54.995Z,999.32
2018-11-06T07:37:54.974Z,999.32
2018-11-06T07:38:54.967Z,999.32
2018-11-06T07:39:54.937Z,999.3
2018-11-06T07:40:54.960Z,999.33
2018-11-06T07:41:54.901Z,999.37
2018-11-06T07:42:54.889Z,999.37
2018-11-06T07:43:54.866Z,999.42
2018-11-06T07:44:54.850Z,999.43
2018-11-06T07:45:54.830Z,999.4
2018-11-06T07:46:54.813Z,999.41
2018-11-06T07:47:54.793Z,999.48
2018-11-06T07:48:54.779Z,999.42
2018-11-06T07:49:54.862Z,999.43
2018-11-06T07:50:54.747Z,999.46
2018-11-06T07:51:54.721Z,999.46
2018-11-06T07:52:54.705Z,999.49
2018-11-06T07:53:54.686Z,999.48
2018-11-06T07:54:54.667Z,999.46
2018-11-06T07:55:54.730Z,999.42
2018-11-06T07:56:54.636Z,999.43
2018-11-06T07:57:54.619Z,999.38
2018-11-06T07:58:54.597Z,999.35
2018-11-06T07:59:54.579Z,999.39
2018-11-06T08:00:54.562Z,999.36
2018-11-06T08:01:54.545Z,999.34
2018-11-06T08:02:54.526Z,999.34
2018-11-06T08:03:54.510Z,999.34
2018-11-06T08:04:54.494Z,999.35
2018-11-06T08:05:54.477Z,999.31
2018-11-06T08:06:54.457Z,999.34
2018-11-06T08:07:54.444Z,999.39
2018-11-06T08:08:54.424Z,999.34
2018-11-06T08:09:54.405Z,999.37
2018-11-06T08:10:54.385Z,999.38
2018-11-06T08:11:54.367Z,999.39
2018-11-06T08:12:54.350Z,999.36
2018-11-06T08:13:54.336Z,999.42
2018-11-06T08:14:54.344Z,999.39
2018-11-06T08:15:54.300Z,999.4
2018-11-06T08:16:54.281Z,999.5
2018-11-06T08:17:54.281Z,999.46
2018-11-06T08:18:54.245Z,999.54
2018-11-06T08:19:54.232Z,999.55
2018-11-06T08:20:54.626Z,999.57
2018-11-06T08:21:54.195Z,999.6
2018-11-06T08:22:54.176Z,999.59
2018-11-06T08:23:54.177Z,999.6
2018-11-06T08:24:54.143Z,999.56
2018-11-06T08:25:54.124Z,999.53
2018-11-06T08:26:54.109Z,999.5
2018-11-06T08:27:54.200Z,999.49
2018-11-06T08:28:54.073Z,999.54
2018-11-06T08:29:54.056Z,999.54
2018-11-06T08:30:54.511Z,999.53
2018-11-06T08:31:54.762Z,999.54
2018-11-06T08:32:54.192Z,999.58
2018-11-06T08:33:53.991Z,999.58
2018-11-06T08:34:53.971Z,999.56
2018-11-06T08:35:53.953Z,999.6
2018-11-06T08:36:53.966Z,999.57
2018-11-06T08:37:53.924Z,999.62
2018-11-06T08:38:53.905Z,999.61
2018-11-06T08:39:53.885Z,999.6
2018-11-06T08:40:53.881Z,999.61
2018-11-06T08:41:53.852Z,999.62
2018-11-06T08:42:53.840Z,999.63
2018-11-06T08:43:53.824Z,999.64
2018-11-06T08:44:53.803Z,999.64
2018-11-06T08:45:53.787Z,999.67
2018-11-06T08:46:53.771Z,999.68
2018-11-06T08:47:53.758Z,999.7
2018-11-06T08:48:53.736Z,999.69
2018-11-06T08:49:53.722Z,999.68
2018-11-06T08:50:53.704Z,999.71
2018-11-06T08:51:53.690Z,999.67
2018-11-06T08:52:53.669Z,999.68
2018-11-06T08:53:53.653Z,999.69
2018-11-06T08:54:53.638Z,999.66
2018-11-06T08:55:53.622Z,999.65
2018-11-06T08:56:53.605Z,999.61
2018-11-06T08:57:53.589Z,999.64
2018-11-06T08:58:53.571Z,999.59
2018-11-06T08:59:53.563Z,999.65
2018-11-06T09:00:53.542Z,999.64
2018-11-06T09:01:53.523Z,999.65
2018-11-06T09:02:53.508Z,999.64
2018-11-06T09:03:53.496Z,999.7
2018-11-06T09:04:53.475Z,999.63
2018-11-06T09:05:53.458Z,999.7
2018-11-06T09:06:53.451Z,999.7
2018-11-06T09:07:53.428Z,999.65
2018-11-06T09:08:53.491Z,999.66
2018-11-06T09:09:53.400Z,999.67
2018-11-06T09:10:53.380Z,999.63
2018-11-06T09:11:53.364Z,999.61
2018-11-06T09:12:53.346Z,999.62
2018-11-06T09:13:53.331Z,999.6
2018-11-06T09:14:53.316Z,999.63
2018-11-06T09:15:53.300Z,999.62
2018-11-06T09:16:53.341Z,999.58
2018-11-06T09:17:53.267Z,999.59
2018-11-06T09:18:53.252Z,999.56
2018-11-06T09:19:53.239Z,999.54
2018-11-06T09:20:53.225Z,999.57
2018-11-06T09:21:53.208Z,999.5
2018-11-06T09:22:53.188Z,999.51
2018-11-06T09:23:53.178Z,999.51
2018-11-06T09:24:53.158Z,999.51
2018-11-06T09:25:53.141Z,999.52
2018-11-06T09:26:53.127Z,999.5
2018-11-06T09:27:53.112Z,999.51
2018-11-06T09:28:53.096Z,999.54
2018-11-06T09:29:53.082Z,999.47
2018-11-06T09:30:53.095Z,999.5
2018-11-06T09:31:53.049Z,999.49
2018-11-06T09:32:53.035Z,999.44
2018-11-06T09:33:53.025Z,999.45
2018-11-06T09:34:53.011Z,999.45
2018-11-06T09:35:52.985Z,999.46
2018-11-06T09:36:52.972Z,999.38
2018-11-06T09:37:52.954Z,999.36
2018-11-06T09:38:52.938Z,999.36
2018-11-06T09:39:52.924Z,999.38
2018-11-06T09:40:52.909Z,999.34
2018-11-06T09:41:52.894Z,999.35
2018-11-06T09:42:52.878Z,999.35
2018-11-06T09:43:52.863Z,999.36
2018-11-06T09:44:52.881Z,999.34
2018-11-06T09:45:52.832Z,999.39
2018-11-06T09:46:52.816Z,999.35
2018-11-06T09:47:52.803Z,999.39
2018-11-06T09:48:52.786Z,999.39
2018-11-06T09:49:52.772Z,999.46
2018-11-06T09:50:52.755Z,999.42
2018-11-06T09:51:52.747Z,999.43
2018-11-06T09:52:52.726Z,999.47
2018-11-06T09:53:52.712Z,999.42
2018-11-06T09:54:52.699Z,999.39
2018-11-06T09:55:52.688Z,999.38
2018-11-06T09:56:52.667Z,999.38
2018-11-06T09:57:52.653Z,999.42
2018-11-06T09:58:52.638Z,999.39
2018-11-06T09:59:52.623Z,999.42
2018-11-06T10:00:52.606Z,999.37
2018-11-06T10:01:52.595Z,999.38
2018-11-06T10:02:52.578Z,999.39
2018-11-06T10:03:52.562Z,999.36
2018-11-06T10:04:52.557Z,999.38
2018-11-06T10:05:52.535Z,999.35
2018-11-06T10:06:52.826Z,999.34
2018-11-06T10:07:52.641Z,999.35
2018-11-06T10:08:52.492Z,999.36
2018-11-06T10:09:52.480Z,999.35
2018-11-06T10:10:52.462Z,999.36
2018-11-06T10:11:52.449Z,999.35
2018-11-06T10:12:52.433Z,999.39
2018-11-06T10:13:52.420Z,999.39
2018-11-06T10:14:52.405Z,999.42
2018-11-06T10:15:52.392Z,999.44
2018-11-06T10:16:52.375Z,999.43
2018-11-06T10:17:52.361Z,999.44
2018-11-06T10:18:52.353Z,999.39
2018-11-06T10:19:52.336Z,999.4
2018-11-06T10:20:52.323Z,999.38
2018-11-06T10:21:52.308Z,999.34
2018-11-06T10:22:52.292Z,999.33
2018-11-06T10:23:52.280Z,999.3
2018-11-06T10:24:52.267Z,999.3
2018-11-06T10:25:52.248Z,999.3
2018-11-06T10:26:52.242Z,999.25
2018-11-06T10:27:52.230Z,999.25
2018-11-06T10:28:52.211Z,999.23
2018-11-06T10:29:52.196Z,999.25
2018-11-06T10:30:52.269Z,999.24
2018-11-06T10:31:52.167Z,999.24
2018-11-06T10:32:52.154Z,999.23
2018-11-06T10:33:52.143Z,999.26
2018-11-06T10:34:52.125Z,999.26
2018-11-06T10:35:52.115Z,999.31
2018-11-06T10:36:52.111Z,999.31
2018-11-06T10:37:52.135Z,999.35
2018-11-06T10:38:52.071Z,999.41
2018-11-06T10:39:52.060Z,999.39
2018-11-06T10:40:52.043Z,999.37
2018-11-06T10:41:52.030Z,999.38
2018-11-06T10:42:52.019Z,999.34
2018-11-06T10:43:52.001Z,999.31
2018-11-06T10:44:51.989Z,999.3
2018-11-06T10:45:51.977Z,999.29
2018-11-06T10:46:51.962Z,999.23
2018-11-06T10:47:51.949Z,999.22
2018-11-06T10:48:51.936Z,999.21
2018-11-06T10:49:51.921Z,999.21
2018-11-06T10:50:51.908Z,999.16
2018-11-06T10:51:52.006Z,999.14
2018-11-06T10:52:51.882Z,999.15
2018-11-06T10:53:51.869Z,999.15
2018-11-06T10:54:51.856Z,999.16
2018-11-06T10:55:51.841Z,999.11
2018-11-06T10:56:51.829Z,999.14
2018-11-06T10:57:51.866Z,999.12
2018-11-06T10:58:51.803Z,999.06
2018-11-06T10:59:51.797Z,999.03
2018-11-06T11:00:51.778Z,998.95
2018-11-06T11:01:51.766Z,999.01
2018-11-06T11:02:51.770Z,999
2018-11-06T11:03:51.739Z,999.01
2018-11-06T11:04:51.728Z,999.02
2018-11-06T11:05:51.716Z,998.97
2018-11-06T11:06:51.698Z,998.98
2018-11-06T11:07:51.690Z,998.99
2018-11-06T11:08:51.677Z,998.96
2018-11-06T11:09:51.665Z,998.93
2018-11-06T11:10:51.649Z,998.92
2018-11-06T11:11:51.635Z,998.93
2018-11-06T11:12:51.623Z,998.93
2018-11-06T11:13:51.612Z,998.9
2018-11-06T11:14:51.600Z,998.91
2018-11-06T11:15:51.586Z,998.88
2018-11-06T11:16:51.573Z,998.84
2018-11-06T11:17:51.560Z,998.84
2018-11-06T11:18:51.551Z,998.8
2018-11-06T11:19:51.537Z,998.76
2018-11-06T11:20:51.523Z,998.79
2018-11-06T11:21:51.514Z,998.83
2018-11-06T11:22:51.497Z,998.79
2018-11-06T11:23:51.488Z,998.79
2018-11-06T11:24:51.477Z,998.76
2018-11-06T11:25:51.509Z,998.76
2018-11-06T11:26:51.451Z,998.74
2018-11-06T11:27:51.468Z,998.76
2018-11-06T11:28:51.427Z,998.73
2018-11-06T11:29:51.415Z,998.72
2018-11-06T11:30:51.406Z,998.75
2018-11-06T11:31:51.391Z,998.79
2018-11-06T11:32:51.379Z,998.77
2018-11-06T11:33:51.393Z,998.78
2018-11-06T11:34:51.356Z,998.77
2018-11-06T11:35:51.347Z,998.8
2018-11-06T11:36:51.333Z,998.78
2018-11-06T11:37:51.393Z,998.77
2018-11-06T11:38:51.321Z,998.78
2018-11-06T11:39:51.296Z,998.77
2018-11-06T11:40:51.283Z,998.78
2018-11-06T11:41:51.276Z,998.72
2018-11-06T11:42:51.265Z,998.71
2018-11-06T11:43:51.250Z,998.74
2018-11-06T11:44:51.247Z,998.77
2018-11-06T11:45:51.423Z,998.79
2018-11-06T11:46:51.219Z,998.75
2018-11-06T11:47:51.204Z,998.81
2018-11-06T11:48:51.195Z,998.8
2018-11-06T11:49:51.181Z,998.86
2018-11-06T11:50:51.171Z,998.84
2018-11-06T11:51:51.168Z,998.89
2018-11-06T11:52:51.151Z,998.88
2018-11-06T11:53:51.147Z,998.88
2018-11-06T11:54:51.128Z,998.91
2018-11-06T11:55:51.118Z,998.89
2018-11-06T11:56:51.110Z,998.9
2018-11-06T11:57:51.096Z,998.9
2018-11-06T11:58:51.082Z,998.89
2018-11-06T11:59:51.099Z,998.81
2018-11-06T12:00:51.064Z,998.79
2018-11-06T12:01:51.063Z,998.76
2018-11-06T12:02:51.042Z,998.76
2018-11-06T12:03:51.047Z,998.77
2018-11-06T12:04:51.119Z,998.73
2018-11-06T12:05:51.032Z,998.74
2018-11-06T12:06:50.999Z,998.69
2018-11-06T12:07:50.990Z,998.67
2018-11-06T12:08:50.986Z,998.61
2018-11-06T12:09:50.976Z,998.58
2018-11-06T12:10:50.958Z,998.59
2018-11-06T12:11:50.947Z,998.57
2018-11-06T12:12:50.940Z,998.53
2018-11-06T12:13:50.943Z,998.54
2018-11-06T12:14:50.921Z,998.55
2018-11-06T12:15:50.921Z,998.54
2018-11-06T12:16:50.900Z,998.55
2018-11-06T12:17:50.896Z,998.59
2018-11-06T12:18:50.908Z,998.59
2018-11-06T12:19:50.876Z,998.66
2018-11-06T12:20:50.870Z,998.64
2018-11-06T12:21:51.061Z,998.65
2018-11-06T12:22:50.856Z,998.6
2018-11-06T12:23:50.838Z,998.6
2018-11-06T12:24:51.004Z,998.59
2018-11-06T12:25:51.043Z,998.59
2018-11-06T12:26:50.813Z,998.56
2018-11-06T12:27:50.809Z,998.52
2018-11-06T12:28:50.793Z,998.52
2018-11-06T12:29:50.839Z,998.51
2018-11-06T12:30:50.790Z,998.49